PWSweather.com
Personal Weather Stations
Station Observations
ISYDDANM23
Felsted, AabenraaDK 6200

FelstedAabenraaDK 6200

Lat: 54.977066, Lon: 9.507192

Elevation: 135

Station Type: Davis Vantage Pro 2 Plus 24H

http://www.valkaer.dk

High Low Average
Temperature 65.8°F18.8°C 56.6°F13.7°C 59.5°F15.3°C
Dew Point 57.8°F14.3°C 54.2°F12.3°C 55.5°F13.1°C
Winds 6.9 mph 11.1 kmh Calm Calm 2.0 mph SE3.2 kmh SE
Wind Gusts 11.5 mph18.5 kmh -- 4.0 mph6.4 kmh
Humidity 94% 71% 87%
Pressure 29.95 in1014.2 mb 29.74 in1007.1 mb -
Precipitation 0.00 in0.0 mm - -
Hour Temp Dew Point Humidity Winds Wind Gusts Pressure Precip Precip Rate Daily Precip Total
12:00 AM 58.0°F14.4°C 54.8°F12.7°C 89% Calm Calm 1.2 mph1.9 kmh 29.95 in1014.2 mb - 0.00 in0.0 mm 0.00 in0.0 mm
12:10 AM 57.9°F14.4°C 54.7°F12.6°C 89% Calm Calm -- 29.94 in1013.9 mb - 0.00 in0.0 mm 0.00 in0.0 mm
12:15 AM 57.9°F14.4°C 54.7°F12.6°C 89% 1.2 mph E1.9 kmh E 2.3 mph3.7 kmh 29.94 in1013.9 mb - 0.00 in0.0 mm 0.00 in0.0 mm
12:20 AM 57.9°F14.4°C 54.7°F12.6°C 89% 2.3 mph NE3.7 kmh NE 2.3 mph3.7 kmh 29.94 in1013.9 mb - 0.00 in0.0 mm 0.00 in0.0 mm
12:25 AM 57.9°F14.4°C 54.7°F12.6°C 89% 1.2 mph NE1.9 kmh NE 2.3 mph3.7 kmh 29.94 in1013.9 mb - 0.00 in0.0 mm 0.00 in0.0 mm
12:30 AM 57.8°F14.3°C 54.9°F12.7°C 90% 1.2 mph NE1.9 kmh NE 2.3 mph3.7 kmh 29.94 in1013.9 mb - 0.00 in0.0 mm 0.00 in0.0 mm
12:35 AM 57.8°F14.3°C 54.9°F12.7°C 90% 1.2 mph NE1.9 kmh NE 2.3 mph3.7 kmh 29.94 in1013.9 mb - 0.00 in0.0 mm 0.00 in0.0 mm
12:40 AM 57.8°F14.3°C 54.9°F12.7°C 90% 1.2 mph NE1.9 kmh NE 2.3 mph3.7 kmh 29.94 in1013.9 mb - 0.00 in0.0 mm 0.00 in0.0 mm
12:45 AM 57.8°F14.3°C 54.9°F12.7°C 90% Calm Calm 2.3 mph3.7 kmh 29.94 in1013.9 mb - 0.00 in0.0 mm 0.00 in0.0 mm
12:50 AM 57.8°F14.3°C 54.9°F12.7°C 90% 1.2 mph NE1.9 kmh NE 2.3 mph3.7 kmh 29.94 in1013.9 mb - 0.00 in0.0 mm 0.00 in0.0 mm
12:55 AM 57.8°F14.3°C 54.9°F12.7°C 90% 1.2 mph NE1.9 kmh NE 2.3 mph3.7 kmh 29.94 in1013.9 mb - 0.00 in0.0 mm 0.00 in0.0 mm
01:00 AM 57.8°F14.3°C 54.9°F12.7°C 90% 2.3 mph NE3.7 kmh NE 3.5 mph5.6 kmh 29.94 in1013.9 mb - 0.00 in0.0 mm 0.00 in0.0 mm
01:10 AM 57.8°F14.3°C 54.9°F12.7°C 90% 1.2 mph NE1.9 kmh NE 2.3 mph3.7 kmh 29.94 in1013.9 mb - 0.00 in0.0 mm 0.00 in0.0 mm
01:15 AM 57.8°F14.3°C 54.9°F12.7°C 90% 1.2 mph NE1.9 kmh NE 2.3 mph3.7 kmh 29.94 in1013.9 mb - 0.00 in0.0 mm 0.00 in0.0 mm
01:20 AM 57.8°F14.3°C 54.9°F12.7°C 90% 1.2 mph NE1.9 kmh NE 2.3 mph3.7 kmh 29.94 in1013.9 mb - 0.00 in0.0 mm 0.00 in0.0 mm
01:25 AM 57.8°F14.3°C 54.9°F12.7°C 90% 1.2 mph NE1.9 kmh NE 3.5 mph5.6 kmh 29.93 in1013.5 mb - 0.00 in0.0 mm 0.00 in0.0 mm
01:30 AM 57.8°F14.3°C 54.9°F12.7°C 90% 2.3 mph ENE3.7 kmh ENE 3.5 mph5.6 kmh 29.93 in1013.5 mb - 0.00 in0.0 mm 0.00 in0.0 mm
01:35 AM 57.8°F14.3°C 54.9°F12.7°C 90% 1.2 mph ENE1.9 kmh ENE 3.5 mph5.6 kmh 29.93 in1013.5 mb - 0.00 in0.0 mm 0.00 in0.0 mm
01:40 AM 57.8°F14.3°C 54.9°F12.7°C 90% 2.3 mph E3.7 kmh E 4.6 mph7.4 kmh 29.93 in1013.5 mb - 0.00 in0.0 mm 0.00 in0.0 mm
01:45 AM 57.8°F14.3°C 54.9°F12.7°C 90% 2.3 mph NE3.7 kmh NE 3.5 mph5.6 kmh 29.92 in1013.2 mb - 0.00 in0.0 mm 0.00 in0.0 mm
01:50 AM 57.7°F14.3°C 54.8°F12.7°C 90% 1.2 mph E1.9 kmh E 2.3 mph3.7 kmh 29.93 in1013.5 mb - 0.00 in0.0 mm 0.00 in0.0 mm
01:55 AM 57.7°F14.3°C 54.8°F12.7°C 90% Calm Calm 1.2 mph1.9 kmh 29.93 in1013.5 mb - 0.00 in0.0 mm 0.00 in0.0 mm
02:00 AM 57.7°F14.3°C 54.8°F12.7°C 90% Calm Calm 1.2 mph1.9 kmh 29.93 in1013.5 mb - 0.00 in0.0 mm 0.00 in0.0 mm
02:10 AM 57.7°F14.3°C 54.7°F12.6°C 90% Calm Calm 1.2 mph1.9 kmh 29.93 in1013.5 mb - 0.00 in0.0 mm 0.00 in0.0 mm
02:15 AM 57.6°F14.2°C 55.0°F12.8°C 91% Calm Calm -- 29.93 in1013.5 mb - 0.00 in0.0 mm 0.00 in0.0 mm
02:20 AM 57.6°F14.2°C 55.0°F12.8°C 91% Calm Calm -- 29.93 in1013.5 mb - 0.00 in0.0 mm 0.00 in0.0 mm
02:25 AM 57.6°F14.2°C 55.0°F12.8°C 91% Calm Calm -- 29.93 in1013.5 mb - 0.00 in0.0 mm 0.00 in0.0 mm
02:30 AM 57.6°F14.2°C 55.0°F12.8°C 91% Calm Calm -- 29.93 in1013.5 mb - 0.00 in0.0 mm 0.00 in0.0 mm
02:35 AM 57.6°F14.2°C 55.0°F12.8°C 91% Calm Calm -- 29.93 in1013.5 mb - 0.00 in0.0 mm 0.00 in0.0 mm
02:40 AM 57.5°F14.2°C 54.9°F12.7°C 91% Calm Calm -- 29.92 in1013.2 mb - 0.00 in0.0 mm 0.00 in0.0 mm
02:45 AM 57.5°F14.2°C 54.9°F12.7°C 91% Calm Calm -- 29.92 in1013.2 mb - 0.00 in0.0 mm 0.00 in0.0 mm
02:50 AM 57.5°F14.2°C 54.9°F12.7°C 91% Calm Calm -- 29.92 in1013.2 mb - 0.00 in0.0 mm 0.00 in0.0 mm
02:55 AM 57.4°F14.1°C 54.8°F12.7°C 91% Calm Calm -- 29.92 in1013.2 mb - 0.00 in0.0 mm 0.00 in0.0 mm
03:00 AM 57.4°F14.1°C 54.8°F12.7°C 91% Calm Calm -- 29.92 in1013.2 mb - 0.00 in0.0 mm 0.00 in0.0 mm
03:10 AM 57.3°F14.1°C 54.7°F12.6°C 91% Calm Calm -- 29.92 in1013.2 mb - 0.00 in0.0 mm 0.00 in0.0 mm
03:15 AM 57.3°F14.1°C 54.7°F12.6°C 91% Calm Calm -- 29.92 in1013.2 mb - 0.00 in0.0 mm 0.00 in0.0 mm
03:20 AM 57.2°F14.0°C 54.6°F12.6°C 91% Calm Calm -- 29.92 in1013.2 mb - 0.00 in0.0 mm 0.00 in0.0 mm
03:25 AM 57.2°F14.0°C 54.9°F12.7°C 92% Calm Calm -- 29.92 in1013.2 mb - 0.00 in0.0 mm 0.00 in0.0 mm
03:30 AM 57.2°F14.0°C 54.9°F12.7°C 92% Calm Calm -- 29.92 in1013.2 mb - 0.00 in0.0 mm 0.00 in0.0 mm
03:35 AM 57.2°F14.0°C 54.9°F12.7°C 92% Calm Calm -- 29.92 in1013.2 mb - 0.00 in0.0 mm 0.00 in0.0 mm
03:40 AM 57.3°F14.1°C 55.0°F12.8°C 92% Calm Calm 1.2 mph1.9 kmh 29.92 in1013.2 mb - 0.00 in0.0 mm 0.00 in0.0 mm
03:45 AM 57.4°F14.1°C 55.1°F12.8°C 92% Calm Calm -- 29.92 in1013.2 mb - 0.00 in0.0 mm 0.00 in0.0 mm
03:50 AM 57.4°F14.1°C 55.1°F12.8°C 92% Calm Calm -- 29.92 in1013.2 mb - 0.00 in0.0 mm 0.00 in0.0 mm
03:55 AM 57.4°F14.1°C 55.1°F12.8°C 92% Calm Calm -- 29.92 in1013.2 mb - 0.00 in0.0 mm 0.00 in0.0 mm
04:00 AM 57.3°F14.1°C 55.0°F12.8°C 92% Calm Calm 1.2 mph1.9 kmh 29.92 in1013.2 mb - 0.00 in0.0 mm 0.00 in0.0 mm
04:10 AM 57.3°F14.1°C 55.0°F12.8°C 92% Calm Calm -- 29.92 in1013.2 mb - 0.00 in0.0 mm 0.00 in0.0 mm
04:15 AM 57.2°F14.0°C 54.9°F12.7°C 92% Calm Calm -- 29.92 in1013.2 mb - 0.00 in0.0 mm 0.00 in0.0 mm
04:20 AM 57.3°F14.1°C 55.0°F12.8°C 92% Calm Calm -- 29.92 in1013.2 mb - 0.00 in0.0 mm 0.00 in0.0 mm
04:25 AM 57.2°F14.0°C 54.9°F12.7°C 92% Calm Calm -- 29.92 in1013.2 mb - 0.00 in0.0 mm 0.00 in0.0 mm
04:30 AM 57.2°F14.0°C 54.9°F12.7°C 92% Calm Calm -- 29.92 in1013.2 mb - 0.00 in0.0 mm 0.00 in0.0 mm
04:35 AM 57.2°F14.0°C 54.9°F12.7°C 92% Calm Calm -- 29.92 in1013.2 mb - 0.00 in0.0 mm 0.00 in0.0 mm
04:40 AM 57.1°F13.9°C 54.8°F12.7°C 92% Calm Calm -- 29.91 in1012.9 mb - 0.00 in0.0 mm 0.00 in0.0 mm
04:45 AM 57.2°F14.0°C 54.9°F12.7°C 92% Calm Calm -- 29.91 in1012.9 mb - 0.00 in0.0 mm 0.00 in0.0 mm
04:50 AM 57.1°F13.9°C 54.8°F12.7°C 92% Calm Calm -- 29.91 in1012.9 mb - 0.00 in0.0 mm 0.00 in0.0 mm
04:55 AM 57.1°F13.9°C 54.8°F12.7°C 92% Calm Calm -- 29.91 in1012.9 mb - 0.00 in0.0 mm 0.00 in0.0 mm
05:00 AM 57.1°F13.9°C 54.8°F12.7°C 92% Calm Calm -- 29.91 in1012.9 mb - 0.00 in0.0 mm 0.00 in0.0 mm
05:10 AM 57.2°F14.0°C 54.8°F12.7°C 92% Calm Calm -- 29.91 in1012.9 mb - 0.00 in0.0 mm 0.00 in0.0 mm
05:15 AM 57.1°F13.9°C 54.8°F12.7°C 92% Calm Calm -- 29.90 in1012.5 mb - 0.00 in0.0 mm 0.00 in0.0 mm
05:20 AM 57.0°F13.9°C 55.0°F12.8°C 93% Calm Calm -- 29.90 in1012.5 mb - 0.00 in0.0 mm 0.00 in0.0 mm
05:25 AM 57.0°F13.9°C 55.0°F12.8°C 93% Calm Calm -- 29.90 in1012.5 mb - 0.00 in0.0 mm 0.00 in0.0 mm
05:30 AM 57.0°F13.9°C 54.7°F12.6°C 92% Calm Calm 1.2 mph1.9 kmh 29.90 in1012.5 mb - 0.00 in0.0 mm 0.00 in0.0 mm
05:35 AM 57.0°F13.9°C 55.0°F12.8°C 93% Calm Calm -- 29.90 in1012.5 mb - 0.00 in0.0 mm 0.00 in0.0 mm
05:40 AM 57.1°F13.9°C 55.1°F12.8°C 93% Calm Calm -- 29.89 in1012.2 mb - 0.00 in0.0 mm 0.00 in0.0 mm
05:45 AM 57.1°F13.9°C 55.1°F12.8°C 93% Calm Calm -- 29.89 in1012.2 mb - 0.00 in0.0 mm 0.00 in0.0 mm
05:50 AM 56.8°F13.8°C 54.5°F12.5°C 92% Calm Calm 1.2 mph1.9 kmh 29.90 in1012.5 mb - 0.00 in0.0 mm 0.00 in0.0 mm
05:55 AM 56.8°F13.8°C 54.8°F12.7°C 93% 1.2 mph E1.9 kmh E 1.2 mph1.9 kmh 29.89 in1012.2 mb - 0.00 in0.0 mm 0.00 in0.0 mm
06:00 AM 56.8°F13.8°C 54.8°F12.7°C 93% Calm Calm -- 29.89 in1012.2 mb - 0.00 in0.0 mm 0.00 in0.0 mm
06:10 AM 57.0°F13.9°C 55.0°F12.8°C 93% Calm Calm -- 29.89 in1012.2 mb - 0.00 in0.0 mm 0.00 in0.0 mm
06:15 AM 57.0°F13.9°C 55.0°F12.8°C 93% 1.2 mph E1.9 kmh E 1.2 mph1.9 kmh 29.89 in1012.2 mb - 0.00 in0.0 mm 0.00 in0.0 mm
06:20 AM 56.9°F13.8°C 54.9°F12.7°C 93% Calm Calm -- 29.89 in1012.2 mb - 0.00 in0.0 mm 0.00 in0.0 mm
06:25 AM 56.9°F13.8°C 54.9°F12.7°C 93% Calm Calm -- 29.89 in1012.2 mb - 0.00 in0.0 mm 0.00 in0.0 mm
06:30 AM 56.9°F13.8°C 54.9°F12.7°C 93% Calm Calm -- 29.89 in1012.2 mb - 0.00 in0.0 mm 0.00 in0.0 mm
06:35 AM 56.7°F13.7°C 54.7°F12.6°C 93% Calm Calm -- 29.89 in1012.2 mb - 0.00 in0.0 mm 0.00 in0.0 mm
06:40 AM 56.7°F13.7°C 54.7°F12.6°C 93% Calm Calm -- 29.89 in1012.2 mb - 0.00 in0.0 mm 0.00 in0.0 mm
06:45 AM 56.8°F13.8°C 54.8°F12.7°C 93% Calm Calm -- 29.89 in1012.2 mb - 0.00 in0.0 mm 0.00 in0.0 mm
06:50 AM 56.9°F13.8°C 54.9°F12.7°C 93% Calm Calm -- 29.89 in1012.2 mb - 0.00 in0.0 mm 0.00 in0.0 mm
06:55 AM 57.0°F13.9°C 55.0°F12.8°C 93% Calm Calm -- 29.89 in1012.2 mb - 0.00 in0.0 mm 0.00 in0.0 mm
07:00 AM 57.0°F13.9°C 55.0°F12.8°C 93% Calm Calm -- 29.89 in1012.2 mb - 0.00 in0.0 mm 0.00 in0.0 mm
07:10 AM 57.1°F13.9°C 55.1°F12.8°C 93% Calm Calm -- 29.89 in1012.2 mb - 0.00 in0.0 mm 0.00 in0.0 mm
07:15 AM 57.2°F14.0°C 55.2°F12.9°C 93% Calm Calm 1.2 mph1.9 kmh 29.89 in1012.2 mb - 0.00 in0.0 mm 0.00 in0.0 mm
07:20 AM 57.2°F14.0°C 55.2°F12.9°C 93% 1.2 mph E1.9 kmh E 2.3 mph3.7 kmh 29.89 in1012.2 mb - 0.00 in0.0 mm 0.00 in0.0 mm
07:25 AM 57.2°F14.0°C 55.2°F12.9°C 93% 1.2 mph E1.9 kmh E 2.3 mph3.7 kmh 29.89 in1012.2 mb - 0.00 in0.0 mm 0.00 in0.0 mm
07:30 AM 57.3°F14.1°C 55.3°F12.9°C 93% 1.2 mph E1.9 kmh E 2.3 mph3.7 kmh 29.89 in1012.2 mb - 0.00 in0.0 mm 0.00 in0.0 mm
07:35 AM 57.3°F14.1°C 55.3°F12.9°C 93% 1.2 mph ESE1.9 kmh ESE 2.3 mph3.7 kmh 29.89 in1012.2 mb - 0.00 in0.0 mm 0.00 in0.0 mm
07:40 AM 57.4°F14.1°C 55.4°F13.0°C 93% 1.2 mph ESE1.9 kmh ESE 3.5 mph5.6 kmh 29.89 in1012.2 mb - 0.00 in0.0 mm 0.00 in0.0 mm
07:45 AM 57.5°F14.2°C 55.5°F13.1°C 93% Calm Calm 1.2 mph1.9 kmh 29.89 in1012.2 mb - 0.00 in0.0 mm 0.00 in0.0 mm
07:50 AM 57.5°F14.2°C 55.5°F13.1°C 93% 1.2 mph SSE1.9 kmh SSE 2.3 mph3.7 kmh 29.89 in1012.2 mb - 0.00 in0.0 mm 0.00 in0.0 mm
07:55 AM 57.6°F14.2°C 55.6°F13.1°C 93% 1.2 mph SSE1.9 kmh SSE 2.3 mph3.7 kmh 29.89 in1012.2 mb - 0.00 in0.0 mm 0.00 in0.0 mm
08:00 AM 57.7°F14.3°C 55.7°F13.2°C 93% 2.3 mph SSE3.7 kmh SSE 3.5 mph5.6 kmh 29.89 in1012.2 mb - 0.00 in0.0 mm 0.00 in0.0 mm
08:10 AM 57.9°F14.4°C 55.9°F13.3°C 93% 2.3 mph S3.7 kmh S 3.5 mph5.6 kmh 29.89 in1012.2 mb - 0.00 in0.0 mm 0.00 in0.0 mm
08:15 AM 58.0°F14.4°C 55.9°F13.3°C 93% 2.3 mph SSE3.7 kmh SSE 3.5 mph5.6 kmh 29.89 in1012.2 mb - 0.00 in0.0 mm 0.00 in0.0 mm
08:20 AM 58.0°F14.4°C 56.3°F13.5°C 94% 2.3 mph SSE3.7 kmh SSE 3.5 mph5.6 kmh 29.89 in1012.2 mb - 0.00 in0.0 mm 0.00 in0.0 mm
08:25 AM 58.1°F14.5°C 56.4°F13.6°C 94% 2.3 mph SSE3.7 kmh SSE 3.5 mph5.6 kmh 29.89 in1012.2 mb - 0.00 in0.0 mm 0.00 in0.0 mm
08:30 AM 58.2°F14.6°C 56.5°F13.6°C 94% 2.3 mph S3.7 kmh S 3.5 mph5.6 kmh 29.89 in1012.2 mb - 0.00 in0.0 mm 0.00 in0.0 mm
08:35 AM 58.2°F14.6°C 56.5°F13.6°C 94% 3.5 mph SSW5.6 kmh SSW 3.5 mph5.6 kmh 29.89 in1012.2 mb - 0.00 in0.0 mm 0.00 in0.0 mm
08:40 AM 58.3°F14.6°C 56.3°F13.5°C 93% 2.3 mph SSW3.7 kmh SSW 2.3 mph3.7 kmh 29.89 in1012.2 mb - 0.00 in0.0 mm 0.00 in0.0 mm
08:45 AM 58.3°F14.6°C 56.6°F13.7°C 94% 3.5 mph SW5.6 kmh SW 4.6 mph7.4 kmh 29.89 in1012.2 mb - 0.00 in0.0 mm 0.00 in0.0 mm
08:50 AM 58.3°F14.6°C 56.3°F13.5°C 93% 3.5 mph SW5.6 kmh SW 4.6 mph7.4 kmh 29.89 in1012.2 mb - 0.00 in0.0 mm 0.00 in0.0 mm
08:55 AM 58.2°F14.6°C 56.2°F13.4°C 93% 3.5 mph SW5.6 kmh SW 4.6 mph7.4 kmh 29.90 in1012.5 mb - 0.00 in0.0 mm 0.00 in0.0 mm
09:00 AM 58.2°F14.6°C 56.2°F13.4°C 93% 3.5 mph SW5.6 kmh SW 3.5 mph5.6 kmh 29.89 in1012.2 mb - 0.00 in0.0 mm 0.00 in0.0 mm
09:10 AM 58.3°F14.6°C 56.3°F13.5°C 93% 4.6 mph SW7.4 kmh SW 6.9 mph11.1 kmh 29.89 in1012.2 mb - 0.00 in0.0 mm 0.00 in0.0 mm
09:15 AM 58.2°F14.6°C 56.2°F13.4°C 93% 4.6 mph WSW7.4 kmh WSW 6.9 mph11.1 kmh 29.90 in1012.5 mb - 0.00 in0.0 mm 0.00 in0.0 mm
09:20 AM 58.2°F14.6°C 56.1°F13.4°C 93% 4.6 mph WSW7.4 kmh WSW 6.9 mph11.1 kmh 29.90 in1012.5 mb - 0.00 in0.0 mm 0.00 in0.0 mm
09:25 AM 58.4°F14.7°C 56.4°F13.6°C 93% 3.5 mph SW5.6 kmh SW 3.5 mph5.6 kmh 29.90 in1012.5 mb - 0.00 in0.0 mm 0.00 in0.0 mm
09:30 AM 58.4°F14.7°C 56.4°F13.6°C 93% 4.6 mph SW7.4 kmh SW 8.1 mph13.0 kmh 29.90 in1012.5 mb - 0.00 in0.0 mm 0.00 in0.0 mm
09:35 AM 58.2°F14.6°C 56.2°F13.4°C 93% 3.5 mph SSW5.6 kmh SSW 4.6 mph7.4 kmh 29.90 in1012.5 mb - 0.00 in0.0 mm 0.00 in0.0 mm
09:40 AM 58.2°F14.6°C 56.2°F13.4°C 93% 4.6 mph SW7.4 kmh SW 4.6 mph7.4 kmh 29.90 in1012.5 mb - 0.00 in0.0 mm 0.00 in0.0 mm
09:45 AM 58.5°F14.7°C 56.5°F13.6°C 93% 3.5 mph WSW5.6 kmh WSW 3.5 mph5.6 kmh 29.90 in1012.5 mb - 0.00 in0.0 mm 0.00 in0.0 mm
09:50 AM 58.8°F14.9°C 56.8°F13.8°C 93% 2.3 mph WSW3.7 kmh WSW 3.5 mph5.6 kmh 29.90 in1012.5 mb - 0.00 in0.0 mm 0.00 in0.0 mm
09:55 AM 59.3°F15.2°C 57.2°F14.0°C 93% 2.3 mph SW3.7 kmh SW 5.8 mph9.3 kmh 29.89 in1012.2 mb - 0.00 in0.0 mm 0.00 in0.0 mm
10:00 AM 59.3°F15.2°C 56.6°F13.7°C 91% 4.6 mph SW7.4 kmh SW 4.6 mph7.4 kmh 29.90 in1012.5 mb - 0.00 in0.0 mm 0.00 in0.0 mm
10:10 AM 59.8°F15.4°C 56.5°F13.6°C 89% 5.8 mph SW9.3 kmh SW 8.1 mph13.0 kmh 29.89 in1012.2 mb - 0.00 in0.0 mm 0.00 in0.0 mm
10:15 AM 59.7°F15.4°C 56.1°F13.4°C 88% 4.6 mph SW7.4 kmh SW 4.6 mph7.4 kmh 29.89 in1012.2 mb - 0.00 in0.0 mm 0.00 in0.0 mm
10:20 AM 59.9°F15.5°C 56.0°F13.3°C 87% 4.6 mph SW7.4 kmh SW 8.1 mph13.0 kmh 29.90 in1012.5 mb - 0.00 in0.0 mm 0.00 in0.0 mm
10:25 AM 60.2°F15.7°C 56.3°F13.5°C 87% 3.5 mph SW5.6 kmh SW 4.6 mph7.4 kmh 29.89 in1012.2 mb - 0.00 in0.0 mm 0.00 in0.0 mm
10:30 AM 61.0°F16.1°C 56.5°F13.6°C 85% 3.5 mph SW5.6 kmh SW 4.6 mph7.4 kmh 29.89 in1012.2 mb - 0.00 in0.0 mm 0.00 in0.0 mm
10:35 AM 61.4°F16.3°C 56.6°F13.7°C 84% 2.3 mph WSW3.7 kmh WSW 3.5 mph5.6 kmh 29.89 in1012.2 mb - 0.00 in0.0 mm 0.00 in0.0 mm
10:40 AM 62.7°F17.1°C 57.8°F14.3°C 84% 4.6 mph SSW7.4 kmh SSW 6.9 mph11.1 kmh 29.89 in1012.2 mb - 0.00 in0.0 mm 0.00 in0.0 mm
10:45 AM 61.9°F16.6°C 56.0°F13.3°C 81% 3.5 mph SW5.6 kmh SW 3.5 mph5.6 kmh 29.89 in1012.2 mb - 0.00 in0.0 mm 0.00 in0.0 mm
10:50 AM 61.7°F16.5°C 56.1°F13.4°C 82% 4.6 mph SW7.4 kmh SW 6.9 mph11.1 kmh 29.89 in1012.2 mb - 0.00 in0.0 mm 0.00 in0.0 mm
10:55 AM 62.1°F16.7°C 56.5°F13.6°C 82% 3.5 mph SW5.6 kmh SW 4.6 mph7.4 kmh 29.89 in1012.2 mb - 0.00 in0.0 mm 0.00 in0.0 mm
11:00 AM 63.3°F17.4°C 57.4°F14.1°C 81% 3.5 mph SSW5.6 kmh SSW 6.9 mph11.1 kmh 29.89 in1012.2 mb - 0.00 in0.0 mm 0.00 in0.0 mm
11:10 AM 64.1°F17.8°C 57.4°F14.1°C 79% 3.5 mph S5.6 kmh S 5.8 mph9.3 kmh 29.88 in1011.9 mb - 0.00 in0.0 mm 0.00 in0.0 mm
11:15 AM 63.7°F17.6°C 57.1°F13.9°C 79% 4.6 mph S7.4 kmh S 6.9 mph11.1 kmh 29.88 in1011.9 mb - 0.00 in0.0 mm 0.00 in0.0 mm
11:20 AM 64.3°F17.9°C 56.9°F13.8°C 77% 3.5 mph S5.6 kmh S 5.8 mph9.3 kmh 29.88 in1011.9 mb - 0.00 in0.0 mm 0.00 in0.0 mm
11:25 AM 64.3°F17.9°C 56.6°F13.7°C 76% 3.5 mph ESE5.6 kmh ESE 3.5 mph5.6 kmh 29.87 in1011.5 mb - 0.00 in0.0 mm 0.00 in0.0 mm
11:30 AM 64.0°F17.8°C 55.6°F13.1°C 74% 2.3 mph SSE3.7 kmh SSE 5.8 mph9.3 kmh 29.87 in1011.5 mb - 0.00 in0.0 mm 0.00 in0.0 mm
11:35 AM 63.8°F17.7°C 55.7°F13.2°C 75% 1.2 mph SSW1.9 kmh SSW 3.5 mph5.6 kmh 29.87 in1011.5 mb - 0.00 in0.0 mm 0.00 in0.0 mm
11:40 AM 64.3°F17.9°C 56.2°F13.4°C 75% 2.3 mph S3.7 kmh S 4.6 mph7.4 kmh 29.87 in1011.5 mb - 0.00 in0.0 mm 0.00 in0.0 mm
11:45 AM 64.4°F18.0°C 56.3°F13.5°C 75% 2.3 mph S3.7 kmh S 3.5 mph5.6 kmh 29.87 in1011.5 mb - 0.00 in0.0 mm 0.00 in0.0 mm
11:50 AM 64.4°F18.0°C 54.8°F12.7°C 71% 3.5 mph SE5.6 kmh SE 6.9 mph11.1 kmh 29.87 in1011.5 mb - 0.00 in0.0 mm 0.00 in0.0 mm
11:55 AM 64.0°F17.8°C 54.8°F12.7°C 72% 1.2 mph SE1.9 kmh SE 2.3 mph3.7 kmh 29.87 in1011.5 mb - 0.00 in0.0 mm 0.00 in0.0 mm
12:00 PM 64.8°F18.2°C 55.2°F12.9°C 71% 3.5 mph S5.6 kmh S 3.5 mph5.6 kmh 29.86 in1011.2 mb - 0.00 in0.0 mm 0.00 in0.0 mm
12:10 PM 65.0°F18.3°C 56.9°F13.8°C 75% 5.8 mph SSE9.3 kmh SSE 8.1 mph13.0 kmh 29.87 in1011.5 mb - 0.00 in0.0 mm 0.00 in0.0 mm
12:15 PM 64.7°F18.2°C 55.9°F13.3°C 73% 2.3 mph SE3.7 kmh SE 3.5 mph5.6 kmh 29.86 in1011.2 mb - 0.00 in0.0 mm 0.00 in0.0 mm
12:20 PM 64.5°F18.1°C 55.6°F13.1°C 73% 2.3 mph SW3.7 kmh SW 2.3 mph3.7 kmh 29.86 in1011.2 mb - 0.00 in0.0 mm 0.00 in0.0 mm
12:25 PM 64.6°F18.1°C 56.1°F13.4°C 74% 2.3 mph S3.7 kmh S 4.6 mph7.4 kmh 29.86 in1011.2 mb - 0.00 in0.0 mm 0.00 in0.0 mm
12:30 PM 64.5°F18.1°C 56.0°F13.3°C 74% 3.5 mph SE5.6 kmh SE 4.6 mph7.4 kmh 29.86 in1011.2 mb - 0.00 in0.0 mm 0.00 in0.0 mm
12:35 PM 65.8°F18.8°C 56.9°F13.8°C 73% 2.3 mph NE3.7 kmh NE 3.5 mph5.6 kmh 29.86 in1011.2 mb - 0.00 in0.0 mm 0.00 in0.0 mm
12:40 PM 64.8°F18.2°C 56.3°F13.5°C 74% 1.2 mph SSE1.9 kmh SSE 3.5 mph5.6 kmh 29.85 in1010.8 mb - 0.00 in0.0 mm 0.00 in0.0 mm
12:45 PM 65.3°F18.5°C 56.8°F13.8°C 74% 1.2 mph E1.9 kmh E 3.5 mph5.6 kmh 29.85 in1010.8 mb - 0.00 in0.0 mm 0.00 in0.0 mm
12:50 PM 65.0°F18.3°C 56.1°F13.4°C 73% 3.5 mph E5.6 kmh E 3.5 mph5.6 kmh 29.85 in1010.8 mb - 0.00 in0.0 mm 0.00 in0.0 mm
12:55 PM 65.2°F18.4°C 56.0°F13.3°C 72% 4.6 mph S7.4 kmh S 6.9 mph11.1 kmh 29.85 in1010.8 mb - 0.00 in0.0 mm 0.00 in0.0 mm
01:00 PM 64.9°F18.3°C 56.0°F13.3°C 73% 3.5 mph S5.6 kmh S 6.9 mph11.1 kmh 29.85 in1010.8 mb - 0.00 in0.0 mm 0.00 in0.0 mm
01:10 PM 65.0°F18.3°C 56.5°F13.6°C 74% 4.6 mph S7.4 kmh S 4.6 mph7.4 kmh 29.84 in1010.5 mb - 0.00 in0.0 mm 0.00 in0.0 mm
01:15 PM 64.4°F18.0°C 55.6°F13.1°C 73% 1.2 mph S1.9 kmh S 3.5 mph5.6 kmh 29.84 in1010.5 mb - 0.00 in0.0 mm 0.00 in0.0 mm
01:20 PM 64.5°F18.1°C 56.0°F13.3°C 74% 3.5 mph SSE5.6 kmh SSE 5.8 mph9.3 kmh 29.84 in1010.5 mb - 0.00 in0.0 mm 0.00 in0.0 mm
01:25 PM 64.3°F17.9°C 55.4°F13.0°C 73% 3.5 mph SSE5.6 kmh SSE 3.5 mph5.6 kmh 29.83 in1010.2 mb - 0.00 in0.0 mm 0.00 in0.0 mm
01:30 PM 64.3°F17.9°C 55.4°F13.0°C 73% 2.3 mph SSE3.7 kmh SSE 3.5 mph5.6 kmh 29.84 in1010.5 mb - 0.00 in0.0 mm 0.00 in0.0 mm
01:35 PM 64.3°F17.9°C 55.4°F13.0°C 73% 2.3 mph SE3.7 kmh SE 3.5 mph5.6 kmh 29.83 in1010.2 mb - 0.00 in0.0 mm 0.00 in0.0 mm
01:40 PM 64.4°F18.0°C 55.2°F12.9°C 72% 3.5 mph SSE5.6 kmh SSE 5.8 mph9.3 kmh 29.83 in1010.2 mb - 0.00 in0.0 mm 0.00 in0.0 mm
01:45 PM 64.4°F18.0°C 55.1°F12.8°C 72% 3.5 mph SE5.6 kmh SE 4.6 mph7.4 kmh 29.83 in1010.2 mb - 0.00 in0.0 mm 0.00 in0.0 mm
01:50 PM 64.3°F17.9°C 55.1°F12.8°C 72% 4.6 mph SE7.4 kmh SE 6.9 mph11.1 kmh 29.83 in1010.2 mb - 0.00 in0.0 mm 0.00 in0.0 mm
01:55 PM 64.2°F17.9°C 54.6°F12.6°C 71% 3.5 mph SE5.6 kmh SE 5.8 mph9.3 kmh 29.83 in1010.2 mb - 0.00 in0.0 mm 0.00 in0.0 mm
02:00 PM 64.3°F17.9°C 55.1°F12.8°C 72% 3.5 mph SE5.6 kmh SE 4.6 mph7.4 kmh 29.83 in1010.2 mb - 0.00 in0.0 mm 0.00 in0.0 mm
02:10 PM 64.4°F18.0°C 55.2°F12.9°C 72% 2.3 mph SE3.7 kmh SE 4.6 mph7.4 kmh 29.83 in1010.2 mb - 0.00 in0.0 mm 0.00 in0.0 mm
02:15 PM 64.5°F18.1°C 54.9°F12.7°C 71% 3.5 mph SE5.6 kmh SE 8.1 mph13.0 kmh 29.83 in1010.2 mb - 0.00 in0.0 mm 0.00 in0.0 mm
02:20 PM 64.7°F18.2°C 55.1°F12.8°C 71% 3.5 mph SSE5.6 kmh SSE 4.6 mph7.4 kmh 29.82 in1009.8 mb - 0.00 in0.0 mm 0.00 in0.0 mm
02:25 PM 64.8°F18.2°C 55.2°F12.9°C 71% 2.3 mph SE3.7 kmh SE 6.9 mph11.1 kmh 29.82 in1009.8 mb - 0.00 in0.0 mm 0.00 in0.0 mm
02:30 PM 64.9°F18.3°C 55.3°F12.9°C 71% 3.5 mph SE5.6 kmh SE 4.6 mph7.4 kmh 29.82 in1009.8 mb - 0.00 in0.0 mm 0.00 in0.0 mm
02:35 PM 64.7°F18.2°C 55.5°F13.1°C 72% 4.6 mph SE7.4 kmh SE 9.2 mph14.8 kmh 29.82 in1009.8 mb - 0.00 in0.0 mm 0.00 in0.0 mm
02:40 PM 64.7°F18.2°C 55.5°F13.1°C 72% 4.6 mph SE7.4 kmh SE 5.8 mph9.3 kmh 29.82 in1009.8 mb - 0.00 in0.0 mm 0.00 in0.0 mm
02:45 PM 64.8°F18.2°C 55.5°F13.1°C 72% 4.6 mph SE7.4 kmh SE 4.6 mph7.4 kmh 29.82 in1009.8 mb - 0.00 in0.0 mm 0.00 in0.0 mm
02:50 PM 64.9°F18.3°C 56.0°F13.3°C 73% 5.8 mph SE9.3 kmh SE 10.4 mph16.7 kmh 29.82 in1009.8 mb - 0.00 in0.0 mm 0.00 in0.0 mm
02:55 PM 64.8°F18.2°C 56.3°F13.5°C 74% 4.6 mph SE7.4 kmh SE 5.8 mph9.3 kmh 29.82 in1009.8 mb - 0.00 in0.0 mm 0.00 in0.0 mm
03:00 PM 64.8°F18.2°C 56.7°F13.7°C 75% 5.8 mph SE9.3 kmh SE 10.4 mph16.7 kmh 29.82 in1009.8 mb - 0.00 in0.0 mm 0.00 in0.0 mm
03:10 PM 64.6°F18.1°C 56.5°F13.6°C 75% 5.8 mph SE9.3 kmh SE 9.2 mph14.8 kmh 29.82 in1009.8 mb - 0.00 in0.0 mm 0.00 in0.0 mm
03:15 PM 64.2°F17.9°C 56.5°F13.6°C 76% 4.6 mph SE7.4 kmh SE 8.1 mph13.0 kmh 29.82 in1009.8 mb - 0.00 in0.0 mm 0.00 in0.0 mm
03:20 PM 64.1°F17.8°C 56.3°F13.5°C 76% 4.6 mph SE7.4 kmh SE 9.2 mph14.8 kmh 29.82 in1009.8 mb - 0.00 in0.0 mm 0.00 in0.0 mm
03:25 PM 63.6°F17.6°C 56.3°F13.5°C 77% 6.9 mph SE11.1 kmh SE 11.5 mph18.5 kmh 29.82 in1009.8 mb - 0.00 in0.0 mm 0.00 in0.0 mm
03:30 PM 63.5°F17.5°C 56.6°F13.7°C 78% 5.8 mph SE9.3 kmh SE 11.5 mph18.5 kmh 29.81 in1009.5 mb - 0.00 in0.0 mm 0.00 in0.0 mm
03:35 PM 63.6°F17.6°C 56.6°F13.7°C 78% 4.6 mph SE7.4 kmh SE 6.9 mph11.1 kmh 29.81 in1009.5 mb - 0.00 in0.0 mm 0.00 in0.0 mm
03:40 PM 63.5°F17.5°C 56.8°F13.8°C 79% 5.8 mph SE9.3 kmh SE 10.4 mph16.7 kmh 29.81 in1009.5 mb - 0.00 in0.0 mm 0.00 in0.0 mm
03:45 PM 63.4°F17.4°C 56.8°F13.8°C 79% 3.5 mph SE5.6 kmh SE 9.2 mph14.8 kmh 29.81 in1009.5 mb - 0.00 in0.0 mm 0.00 in0.0 mm
03:50 PM 63.2°F17.3°C 56.6°F13.7°C 79% 5.8 mph SE9.3 kmh SE 8.1 mph13.0 kmh 29.81 in1009.5 mb - 0.00 in0.0 mm 0.00 in0.0 mm
03:55 PM 62.9°F17.2°C 56.3°F13.5°C 79% 5.8 mph SE9.3 kmh SE 6.9 mph11.1 kmh 29.80 in1009.1 mb - 0.00 in0.0 mm 0.00 in0.0 mm
04:00 PM 63.3°F17.4°C 56.6°F13.7°C 79% 4.6 mph SE7.4 kmh SE 8.1 mph13.0 kmh 29.80 in1009.1 mb - 0.00 in0.0 mm 0.00 in0.0 mm
04:10 PM 63.0°F17.2°C 56.4°F13.6°C 79% 5.8 mph SE9.3 kmh SE 9.2 mph14.8 kmh 29.80 in1009.1 mb - 0.00 in0.0 mm 0.00 in0.0 mm
04:15 PM 62.8°F17.1°C 56.2°F13.4°C 79% 5.8 mph SE9.3 kmh SE 9.2 mph14.8 kmh 29.80 in1009.1 mb - 0.00 in0.0 mm 0.00 in0.0 mm
04:20 PM 63.0°F17.2°C 56.4°F13.6°C 79% 5.8 mph SE9.3 kmh SE 10.4 mph16.7 kmh 29.80 in1009.1 mb - 0.00 in0.0 mm 0.00 in0.0 mm
04:25 PM 63.0°F17.2°C 56.7°F13.7°C 80% 4.6 mph SE7.4 kmh SE 6.9 mph11.1 kmh 29.80 in1009.1 mb - 0.00 in0.0 mm 0.00 in0.0 mm
04:30 PM 62.9°F17.2°C 56.7°F13.7°C 80% 3.5 mph SE5.6 kmh SE 6.9 mph11.1 kmh 29.80 in1009.1 mb - 0.00 in0.0 mm 0.00 in0.0 mm
04:35 PM 62.9°F17.2°C 56.7°F13.7°C 80% 4.6 mph ESE7.4 kmh ESE 6.9 mph11.1 kmh 29.80 in1009.1 mb - 0.00 in0.0 mm 0.00 in0.0 mm
04:40 PM 62.9°F17.2°C 56.7°F13.7°C 80% 3.5 mph SE5.6 kmh SE 4.6 mph7.4 kmh 29.80 in1009.1 mb - 0.00 in0.0 mm 0.00 in0.0 mm
04:45 PM 62.7°F17.1°C 56.4°F13.6°C 80% 5.8 mph ESE9.3 kmh ESE 8.1 mph13.0 kmh 29.80 in1009.1 mb - 0.00 in0.0 mm 0.00 in0.0 mm
04:50 PM 62.4°F16.9°C 56.5°F13.6°C 81% 5.8 mph SE9.3 kmh SE 9.2 mph14.8 kmh 29.80 in1009.1 mb - 0.00 in0.0 mm 0.00 in0.0 mm
04:55 PM 62.2°F16.8°C 56.3°F13.5°C 81% 5.8 mph SE9.3 kmh SE 6.9 mph11.1 kmh 29.80 in1009.1 mb - 0.00 in0.0 mm 0.00 in0.0 mm
05:00 PM 61.9°F16.6°C 56.4°F13.6°C 82% 4.6 mph SE7.4 kmh SE 4.6 mph7.4 kmh 29.80 in1009.1 mb - 0.00 in0.0 mm 0.00 in0.0 mm
05:10 PM 61.2°F16.2°C 55.7°F13.2°C 82% 4.6 mph SE7.4 kmh SE 8.1 mph13.0 kmh 29.80 in1009.1 mb - 0.00 in0.0 mm 0.00 in0.0 mm
05:15 PM 61.1°F16.2°C 55.9°F13.3°C 83% 3.5 mph SE5.6 kmh SE 3.5 mph5.6 kmh 29.79 in1008.8 mb - 0.00 in0.0 mm 0.00 in0.0 mm
05:20 PM 60.9°F16.1°C 55.7°F13.2°C 83% 3.5 mph SE5.6 kmh SE 3.5 mph5.6 kmh 29.79 in1008.8 mb - 0.00 in0.0 mm 0.00 in0.0 mm
05:25 PM 60.7°F15.9°C 55.5°F13.1°C 83% 3.5 mph SE5.6 kmh SE 3.5 mph5.6 kmh 29.79 in1008.8 mb - 0.00 in0.0 mm 0.00 in0.0 mm
05:30 PM 60.2°F15.7°C 55.4°F13.0°C 84% 3.5 mph SE5.6 kmh SE 6.9 mph11.1 kmh 29.79 in1008.8 mb - 0.00 in0.0 mm 0.00 in0.0 mm
05:35 PM 59.9°F15.5°C 55.4°F13.0°C 85% 4.6 mph SE7.4 kmh SE 9.2 mph14.8 kmh 29.79 in1008.8 mb - 0.00 in0.0 mm 0.00 in0.0 mm
05:40 PM 59.7°F15.4°C 55.5°F13.1°C 86% 5.8 mph SE9.3 kmh SE 9.2 mph14.8 kmh 29.79 in1008.8 mb - 0.00 in0.0 mm 0.00 in0.0 mm
05:45 PM 59.6°F15.3°C 55.4°F13.0°C 86% 5.8 mph SE9.3 kmh SE 8.1 mph13.0 kmh 29.79 in1008.8 mb - 0.00 in0.0 mm 0.00 in0.0 mm
05:50 PM 59.6°F15.3°C 55.4°F13.0°C 86% 4.6 mph SE7.4 kmh SE 10.4 mph16.7 kmh 29.79 in1008.8 mb - 0.00 in0.0 mm 0.00 in0.0 mm
05:55 PM 59.6°F15.3°C 55.4°F13.0°C 86% 6.9 mph SE11.1 kmh SE 10.4 mph16.7 kmh 29.79 in1008.8 mb - 0.00 in0.0 mm 0.00 in0.0 mm
06:00 PM 59.5°F15.3°C 55.4°F13.0°C 86% 4.6 mph ESE7.4 kmh ESE 8.1 mph13.0 kmh 29.79 in1008.8 mb - 0.00 in0.0 mm 0.00 in0.0 mm
06:10 PM 59.2°F15.1°C 55.3°F12.9°C 87% 5.8 mph SE9.3 kmh SE 9.2 mph14.8 kmh 29.79 in1008.8 mb - 0.00 in0.0 mm 0.00 in0.0 mm
06:15 PM 59.0°F15.0°C 55.1°F12.8°C 87% 3.5 mph SE5.6 kmh SE 9.2 mph14.8 kmh 29.79 in1008.8 mb - 0.00 in0.0 mm 0.00 in0.0 mm
06:20 PM 58.8°F14.9°C 54.9°F12.7°C 87% 3.5 mph SE5.6 kmh SE 8.1 mph13.0 kmh 29.78 in1008.5 mb - 0.00 in0.0 mm 0.00 in0.0 mm
06:25 PM 58.7°F14.8°C 55.2°F12.9°C 88% 3.5 mph SE5.6 kmh SE 5.8 mph9.3 kmh 29.79 in1008.8 mb - 0.00 in0.0 mm 0.00 in0.0 mm
06:30 PM 58.5°F14.7°C 55.0°F12.8°C 88% 6.9 mph SE11.1 kmh SE 8.1 mph13.0 kmh 29.79 in1008.8 mb - 0.00 in0.0 mm 0.00 in0.0 mm
06:35 PM 58.4°F14.7°C 55.2°F12.9°C 89% 4.6 mph SE7.4 kmh SE 6.9 mph11.1 kmh 29.79 in1008.8 mb - 0.00 in0.0 mm 0.00 in0.0 mm
06:40 PM 58.2°F14.6°C 55.0°F12.8°C 89% 5.8 mph SE9.3 kmh SE 9.2 mph14.8 kmh 29.79 in1008.8 mb - 0.00 in0.0 mm 0.00 in0.0 mm
06:45 PM 58.1°F14.5°C 54.9°F12.7°C 89% 4.6 mph SE7.4 kmh SE 6.9 mph11.1 kmh 29.79 in1008.8 mb - 0.00 in0.0 mm 0.00 in0.0 mm
06:50 PM 58.1°F14.5°C 55.2°F12.9°C 90% 3.5 mph SE5.6 kmh SE 4.6 mph7.4 kmh 29.79 in1008.8 mb - 0.00 in0.0 mm 0.00 in0.0 mm
06:55 PM 58.0°F14.4°C 55.1°F12.8°C 90% 3.5 mph SE5.6 kmh SE 3.5 mph5.6 kmh 29.79 in1008.8 mb - 0.00 in0.0 mm 0.00 in0.0 mm
07:00 PM 58.0°F14.4°C 55.1°F12.8°C 90% 3.5 mph SE5.6 kmh SE 3.5 mph5.6 kmh 29.79 in1008.8 mb - 0.00 in0.0 mm 0.00 in0.0 mm
07:10 PM 58.0°F14.4°C 55.1°F12.8°C 90% 3.5 mph SE5.6 kmh SE 5.8 mph9.3 kmh 29.79 in1008.8 mb - 0.00 in0.0 mm 0.00 in0.0 mm
07:15 PM 58.0°F14.4°C 55.0°F12.8°C 90% 2.3 mph SE3.7 kmh SE 3.5 mph5.6 kmh 29.79 in1008.8 mb - 0.00 in0.0 mm 0.00 in0.0 mm
07:20 PM 57.8°F14.3°C 54.9°F12.7°C 90% 1.2 mph SE1.9 kmh SE 3.5 mph5.6 kmh 29.79 in1008.8 mb - 0.00 in0.0 mm 0.00 in0.0 mm
07:25 PM 57.7°F14.3°C 54.7°F12.6°C 90% 2.3 mph SE3.7 kmh SE 3.5 mph5.6 kmh 29.79 in1008.8 mb - 0.00 in0.0 mm 0.00 in0.0 mm
07:30 PM 57.5°F14.2°C 54.9°F12.7°C 91% 1.2 mph SE1.9 kmh SE 3.5 mph5.6 kmh 29.79 in1008.8 mb - 0.00 in0.0 mm 0.00 in0.0 mm
07:35 PM 57.4°F14.1°C 54.8°F12.7°C 91% 1.2 mph SE1.9 kmh SE 3.5 mph5.6 kmh 29.79 in1008.8 mb - 0.00 in0.0 mm 0.00 in0.0 mm
07:40 PM 57.2°F14.0°C 54.6°F12.6°C 91% 2.3 mph SE3.7 kmh SE 3.5 mph5.6 kmh 29.79 in1008.8 mb - 0.00 in0.0 mm 0.00 in0.0 mm
07:45 PM 57.2°F14.0°C 54.6°F12.6°C 91% 2.3 mph SE3.7 kmh SE 2.3 mph3.7 kmh 29.79 in1008.8 mb - 0.00 in0.0 mm 0.00 in0.0 mm
07:50 PM 57.2°F14.0°C 54.6°F12.6°C 91% 2.3 mph ESE3.7 kmh ESE 4.6 mph7.4 kmh 29.79 in1008.8 mb - 0.00 in0.0 mm 0.00 in0.0 mm
07:55 PM 57.2°F14.0°C 54.6°F12.6°C 91% 2.3 mph E3.7 kmh E 5.8 mph9.3 kmh 29.79 in1008.8 mb - 0.00 in0.0 mm 0.00 in0.0 mm
08:00 PM 57.2°F14.0°C 54.6°F12.6°C 91% 1.2 mph ESE1.9 kmh ESE 3.5 mph5.6 kmh 29.79 in1008.8 mb - 0.00 in0.0 mm 0.00 in0.0 mm
08:10 PM 56.9°F13.8°C 54.3°F12.4°C 91% 1.2 mph E1.9 kmh E 2.3 mph3.7 kmh 29.79 in1008.8 mb - 0.00 in0.0 mm 0.00 in0.0 mm
08:15 PM 56.9°F13.8°C 54.3°F12.4°C 91% 1.2 mph E1.9 kmh E 3.5 mph5.6 kmh 29.79 in1008.8 mb - 0.00 in0.0 mm 0.00 in0.0 mm
08:20 PM 56.9°F13.8°C 54.6°F12.6°C 92% 1.2 mph E1.9 kmh E 2.3 mph3.7 kmh 29.79 in1008.8 mb - 0.00 in0.0 mm 0.00 in0.0 mm
08:25 PM 56.9°F13.8°C 54.6°F12.6°C 92% 1.2 mph ESE1.9 kmh ESE 3.5 mph5.6 kmh 29.78 in1008.5 mb - 0.00 in0.0 mm 0.00 in0.0 mm
08:30 PM 56.8°F13.8°C 54.2°F12.3°C 91% 2.3 mph E3.7 kmh E 3.5 mph5.6 kmh 29.78 in1008.5 mb - 0.00 in0.0 mm 0.00 in0.0 mm
08:35 PM 56.7°F13.7°C 54.4°F12.4°C 92% 2.3 mph E3.7 kmh E 2.3 mph3.7 kmh 29.78 in1008.5 mb - 0.00 in0.0 mm 0.00 in0.0 mm
08:40 PM 56.7°F13.7°C 54.4°F12.4°C 92% 2.3 mph ESE3.7 kmh ESE 3.5 mph5.6 kmh 29.78 in1008.5 mb - 0.00 in0.0 mm 0.00 in0.0 mm
08:45 PM 56.7°F13.7°C 54.4°F12.4°C 92% 2.3 mph E3.7 kmh E 3.5 mph5.6 kmh 29.78 in1008.5 mb - 0.00 in0.0 mm 0.00 in0.0 mm
08:50 PM 56.6°F13.7°C 54.3°F12.4°C 92% 2.3 mph E3.7 kmh E 3.5 mph5.6 kmh 29.78 in1008.5 mb - 0.00 in0.0 mm 0.00 in0.0 mm
08:55 PM 56.6°F13.7°C 54.3°F12.4°C 92% 2.3 mph E3.7 kmh E 3.5 mph5.6 kmh 29.78 in1008.5 mb - 0.00 in0.0 mm 0.00 in0.0 mm
09:00 PM 56.7°F13.7°C 54.4°F12.4°C 92% 3.5 mph E5.6 kmh E 5.8 mph9.3 kmh 29.78 in1008.5 mb - 0.00 in0.0 mm 0.00 in0.0 mm
09:10 PM 56.8°F13.8°C 54.5°F12.5°C 92% 2.3 mph SE3.7 kmh SE 3.5 mph5.6 kmh 29.77 in1008.1 mb - 0.00 in0.0 mm 0.00 in0.0 mm
09:15 PM 56.9°F13.8°C 54.6°F12.6°C 92% 2.3 mph E3.7 kmh E 3.5 mph5.6 kmh 29.77 in1008.1 mb - 0.00 in0.0 mm 0.00 in0.0 mm
09:20 PM 57.0°F13.9°C 54.7°F12.6°C 92% 3.5 mph ESE5.6 kmh ESE 3.5 mph5.6 kmh 29.77 in1008.1 mb - 0.00 in0.0 mm 0.00 in0.0 mm
09:25 PM 57.1°F13.9°C 54.8°F12.7°C 92% 2.3 mph ESE3.7 kmh ESE 3.5 mph5.6 kmh 29.77 in1008.1 mb - 0.00 in0.0 mm 0.00 in0.0 mm
09:30 PM 57.2°F14.0°C 54.9°F12.7°C 92% 2.3 mph E3.7 kmh E 4.6 mph7.4 kmh 29.77 in1008.1 mb - 0.00 in0.0 mm 0.00 in0.0 mm
09:35 PM 57.2°F14.0°C 54.9°F12.7°C 92% 1.2 mph SE1.9 kmh SE 3.5 mph5.6 kmh 29.77 in1008.1 mb - 0.00 in0.0 mm 0.00 in0.0 mm
09:40 PM 57.2°F14.0°C 54.9°F12.7°C 92% 2.3 mph E3.7 kmh E 3.5 mph5.6 kmh 29.77 in1008.1 mb - 0.00 in0.0 mm 0.00 in0.0 mm
09:45 PM 57.2°F14.0°C 54.8°F12.7°C 92% 2.3 mph ESE3.7 kmh ESE 3.5 mph5.6 kmh 29.77 in1008.1 mb - 0.00 in0.0 mm 0.00 in0.0 mm
09:50 PM 57.1°F13.9°C 54.8°F12.7°C 92% 1.2 mph SE1.9 kmh SE 5.8 mph9.3 kmh 29.77 in1008.1 mb - 0.00 in0.0 mm 0.00 in0.0 mm
09:55 PM 57.2°F14.0°C 55.2°F12.9°C 93% 1.2 mph ESE1.9 kmh ESE 2.3 mph3.7 kmh 29.77 in1008.1 mb - 0.00 in0.0 mm 0.00 in0.0 mm
10:00 PM 57.2°F14.0°C 55.1°F12.8°C 93% 1.2 mph ESE1.9 kmh ESE 2.3 mph3.7 kmh 29.77 in1008.1 mb - 0.00 in0.0 mm 0.00 in0.0 mm
10:10 PM 57.2°F14.0°C 55.2°F12.9°C 93% 2.3 mph ESE3.7 kmh ESE 3.5 mph5.6 kmh 29.76 in1007.8 mb - 0.00 in0.0 mm 0.00 in0.0 mm
10:15 PM 57.2°F14.0°C 55.2°F12.9°C 93% 2.3 mph SE3.7 kmh SE 3.5 mph5.6 kmh 29.76 in1007.8 mb - 0.00 in0.0 mm 0.00 in0.0 mm
10:20 PM 57.4°F14.1°C 55.4°F13.0°C 93% 2.3 mph E3.7 kmh E 3.5 mph5.6 kmh 29.76 in1007.8 mb - 0.00 in0.0 mm 0.00 in0.0 mm
10:25 PM 57.6°F14.2°C 55.5°F13.1°C 93% 1.2 mph E1.9 kmh E 3.5 mph5.6 kmh 29.76 in1007.8 mb - 0.00 in0.0 mm 0.00 in0.0 mm
10:30 PM 57.7°F14.3°C 55.7°F13.2°C 93% 2.3 mph ESE3.7 kmh ESE 4.6 mph7.4 kmh 29.76 in1007.8 mb - 0.00 in0.0 mm 0.00 in0.0 mm
10:35 PM 57.7°F14.3°C 55.7°F13.2°C 93% 2.3 mph ESE3.7 kmh ESE 3.5 mph5.6 kmh 29.76 in1007.8 mb - 0.00 in0.0 mm 0.00 in0.0 mm
10:40 PM 57.8°F14.3°C 55.8°F13.2°C 93% 2.3 mph ESE3.7 kmh ESE 5.8 mph9.3 kmh 29.76 in1007.8 mb - 0.00 in0.0 mm 0.00 in0.0 mm
10:45 PM 57.8°F14.3°C 55.8°F13.2°C 93% 3.5 mph E5.6 kmh E 6.9 mph11.1 kmh 29.76 in1007.8 mb - 0.00 in0.0 mm 0.00 in0.0 mm
10:50 PM 57.9°F14.4°C 55.9°F13.3°C 93% 2.3 mph ESE3.7 kmh ESE 5.8 mph9.3 kmh 29.76 in1007.8 mb - 0.00 in0.0 mm 0.00 in0.0 mm
10:55 PM 57.9°F14.4°C 55.9°F13.3°C 93% 2.3 mph ESE3.7 kmh ESE 6.9 mph11.1 kmh 29.75 in1007.5 mb - 0.00 in0.0 mm 0.00 in0.0 mm
11:00 PM 58.0°F14.4°C 56.0°F13.3°C 93% 2.3 mph E3.7 kmh E 3.5 mph5.6 kmh 29.75 in1007.5 mb - 0.00 in0.0 mm 0.00 in0.0 mm
11:10 PM 58.2°F14.6°C 56.1°F13.4°C 93% 2.3 mph ESE3.7 kmh ESE 3.5 mph5.6 kmh 29.75 in1007.5 mb - 0.00 in0.0 mm 0.00 in0.0 mm
11:15 PM 58.3°F14.6°C 56.2°F13.4°C 93% 3.5 mph E5.6 kmh E 6.9 mph11.1 kmh 29.75 in1007.5 mb - 0.00 in0.0 mm 0.00 in0.0 mm
11:20 PM 58.4°F14.7°C 56.4°F13.6°C 93% 3.5 mph ESE5.6 kmh ESE 3.5 mph5.6 kmh 29.75 in1007.5 mb - 0.00 in0.0 mm 0.00 in0.0 mm
11:25 PM 58.5°F14.7°C 56.5°F13.6°C 93% 2.3 mph E3.7 kmh E 3.5 mph5.6 kmh 29.75 in1007.5 mb - 0.00 in0.0 mm 0.00 in0.0 mm
11:30 PM 58.5°F14.7°C 56.5°F13.6°C 93% 2.3 mph E3.7 kmh E 3.5 mph5.6 kmh 29.74 in1007.1 mb - 0.00 in0.0 mm 0.00 in0.0 mm
11:35 PM 58.5°F14.7°C 56.5°F13.6°C 93% 2.3 mph ESE3.7 kmh ESE 6.9 mph11.1 kmh 29.74 in1007.1 mb - 0.00 in0.0 mm 0.00 in0.0 mm
11:40 PM 58.6°F14.8°C 56.6°F13.7°C 93% 2.3 mph SE3.7 kmh SE 5.8 mph9.3 kmh 29.74 in1007.1 mb - 0.00 in0.0 mm 0.00 in0.0 mm
11:45 PM 58.6°F14.8°C 56.6°F13.7°C 93% 2.3 mph E3.7 kmh E 6.9 mph11.1 kmh 29.74 in1007.1 mb - 0.00 in0.0 mm 0.00 in0.0 mm
11:50 PM 58.6°F14.8°C 56.6°F13.7°C 93% 3.5 mph E5.6 kmh E 6.9 mph11.1 kmh 29.74 in1007.1 mb - 0.00 in0.0 mm 0.00 in0.0 mm
11:55 PM 58.6°F14.8°C 56.6°F13.7°C 93% 3.5 mph E5.6 kmh E 5.8 mph9.3 kmh 29.74 in1007.1 mb - 0.00 in0.0 mm 0.00 in0.0 mm